createdAt,value
2019-02-07T00:00:45.482Z,65.54
2019-02-07T00:03:14.249Z,65.65
2019-02-07T00:05:42.687Z,65.75
2019-02-07T00:08:11.202Z,65.57
2019-02-07T00:10:40.031Z,65.58
2019-02-07T00:13:08.494Z,65.55
2019-02-07T00:15:37.284Z,65.58
2019-02-07T00:18:06.482Z,65.89
2019-02-07T00:20:34.934Z,65.35
2019-02-07T00:23:03.513Z,65.67
2019-02-07T00:25:32.637Z,65.67
2019-02-07T00:28:01.425Z,65.57
2019-02-07T00:30:30.228Z,65.55
2019-02-07T00:32:58.980Z,65.54
2019-02-07T00:35:27.455Z,65.49
2019-02-07T00:37:55.856Z,65.55
2019-02-07T00:40:24.322Z,65.68
2019-02-07T00:42:52.758Z,65.71
2019-02-07T00:45:21.205Z,65.51
2019-02-07T00:47:49.998Z,65.37
2019-02-07T00:50:18.434Z,65.37
2019-02-07T00:52:48.253Z,65.40
2019-02-07T00:55:16.968Z,65.39
2019-02-07T00:57:45.855Z,65.26
2019-02-07T01:00:17.341Z,65.60
2019-02-07T01:02:46.097Z,65.64
2019-02-07T01:05:15.291Z,65.30
2019-02-07T01:07:43.795Z,64.83
2019-02-07T01:10:13.653Z,64.48
2019-02-07T01:12:42.113Z,64.40
2019-02-07T01:15:11.028Z,63.94
2019-02-07T01:17:39.475Z,64.24
2019-02-07T01:20:09.523Z,64.16
2019-02-07T01:22:38.250Z,64.10
2019-02-07T01:25:07.888Z,63.42
2019-02-07T01:27:36.333Z,63.68
2019-02-07T01:30:06.355Z,63.79
2019-02-07T01:32:34.793Z,63.23
2019-02-07T01:35:03.694Z,63.52
2019-02-07T01:37:32.136Z,63.18
2019-02-07T01:40:00.885Z,63.25
2019-02-07T01:42:31.129Z,62.74
2019-02-07T01:44:59.846Z,63.00
2019-02-07T01:47:28.383Z,63.01
2019-02-07T01:49:56.807Z,63.15
2019-02-07T01:52:25.542Z,62.97
2019-02-07T01:54:54.640Z,62.48
2019-02-07T01:57:23.307Z,62.75
2019-02-07T01:59:53.023Z,62.29
2019-02-07T02:02:21.825Z,62.40
2019-02-07T02:04:50.248Z,62.35
2019-02-07T02:07:18.969Z,62.59
2019-02-07T02:09:47.426Z,62.52
2019-02-07T02:12:15.967Z,61.80
2019-02-07T02:14:44.734Z,61.34
2019-02-07T02:17:13.470Z,61.21
2019-02-07T02:19:41.918Z,60.77
2019-02-07T02:22:10.785Z,60.34
2019-02-07T02:24:39.261Z,60.06
2019-02-07T02:27:07.690Z,60.30
2019-02-07T02:29:36.503Z,60.20
2019-02-07T02:32:05.000Z,60.10
2019-02-07T02:34:33.813Z,59.76
2019-02-07T02:37:02.518Z,58.71
2019-02-07T02:39:30.971Z,58.74
2019-02-07T02:41:59.970Z,59.59
2019-02-07T02:44:28.417Z,60.33
2019-02-07T02:46:56.834Z,60.00
2019-02-07T02:49:25.637Z,59.42
2019-02-07T02:51:54.339Z,59.42
2019-02-07T02:54:34.958Z,59.08
2019-02-07T02:57:03.961Z,59.12
2019-02-07T02:59:33.166Z,59.58
2019-02-07T03:02:13.398Z,59.60
2019-02-07T03:04:56.678Z,59.62
2019-02-07T03:07:43.349Z,59.77
2019-02-07T03:10:24.953Z,59.87
2019-02-07T03:13:09.400Z,59.99
2019-02-07T03:16:09.336Z,60.24
2019-02-07T03:19:04.881Z,60.72
2019-02-07T03:21:53.395Z,60.72
2019-02-07T03:24:50.395Z,60.01
2019-02-07T03:27:40.208Z,61.11
2019-02-07T03:30:28.663Z,60.54
2019-02-07T03:33:25.822Z,61.00
2019-02-07T03:36:16.374Z,61.23
2019-02-07T03:39:02.403Z,61.39
2019-02-07T03:41:56.380Z,61.74
2019-02-07T03:44:35.546Z,61.97
2019-02-07T03:47:13.739Z,62.42
2019-02-07T03:50:16.206Z,63.46
2019-02-07T03:53:00.988Z,63.06
2019-02-07T03:55:59.755Z,62.62
2019-02-07T03:58:47.592Z,62.36
2019-02-07T04:01:37.820Z,63.03
2019-02-07T04:04:24.313Z,63.27
2019-02-07T04:07:12.028Z,62.72
2019-02-07T04:09:58.653Z,62.88
2019-02-07T04:12:45.174Z,62.57
2019-02-07T04:15:44.837Z,62.36
2019-02-07T04:18:24.611Z,62.22
2019-02-07T04:21:17.346Z,62.24
2019-02-07T04:24:00.284Z,61.93
2019-02-07T04:26:46.390Z,61.82
2019-02-07T04:29:21.405Z,61.68
2019-02-07T04:32:17.891Z,62.18
2019-02-07T04:35:11.508Z,62.20
2019-02-07T04:37:55.958Z,61.97
2019-02-07T04:40:46.057Z,62.62
2019-02-07T04:43:35.862Z,62.41
2019-02-07T04:46:27.041Z,62.25
2019-02-07T04:49:00.351Z,62.21
2019-02-07T04:51:40.311Z,62.05
2019-02-07T04:54:27.786Z,62.57
2019-02-07T04:57:15.271Z,62.34
2019-02-07T05:00:01.600Z,62.29
2019-02-07T05:02:40.791Z,61.99
2019-02-07T05:05:34.766Z,61.92
2019-02-07T05:08:11.521Z,62.52
2019-02-07T05:10:52.409Z,63.04
2019-02-07T05:13:32.446Z,62.45
2019-02-07T05:16:19.745Z,62.79
2019-02-07T05:19:08.732Z,62.67
2019-02-07T05:21:54.803Z,62.95
2019-02-07T05:24:42.273Z,63.71
2019-02-07T05:27:44.843Z,63.53
2019-02-07T05:30:32.204Z,63.27
2019-02-07T05:33:10.662Z,64.06
2019-02-07T05:35:54.998Z,63.74
2019-02-07T05:38:54.785Z,63.35
2019-02-07T05:41:41.558Z,63.03
2019-02-07T05:44:16.827Z,63.30
2019-02-07T05:47:11.775Z,62.68
2019-02-07T05:49:48.758Z,62.33
2019-02-07T05:52:35.245Z,62.30
2019-02-07T05:55:17.858Z,62.54
2019-02-07T05:58:14.462Z,62.32
2019-02-07T06:00:56.333Z,62.20
2019-02-07T06:03:41.174Z,62.18
2019-02-07T06:06:34.526Z,62.26
2019-02-07T06:09:24.533Z,61.86
2019-02-07T06:12:07.107Z,62.11
2019-02-07T06:14:53.419Z,62.52
2019-02-07T06:17:41.178Z,63.01
2019-02-07T06:20:21.634Z,62.91
2019-02-07T06:23:18.027Z,62.93
2019-02-07T06:26:26.180Z,62.78
2019-02-07T06:29:29.005Z,62.98
2019-02-07T06:32:11.286Z,62.94
2019-02-07T06:34:56.749Z,62.98
2019-02-07T06:37:48.393Z,63.44
2019-02-07T06:40:34.932Z,63.30
2019-02-07T06:43:21.429Z,63.29
2019-02-07T06:46:07.780Z,63.78
2019-02-07T06:48:54.229Z,63.75
2019-02-07T06:51:54.850Z,64.06
2019-02-07T06:54:46.251Z,64.02
2019-02-07T06:57:48.712Z,64.14
2019-02-07T07:00:30.143Z,65.05
2019-02-07T07:03:22.769Z,66.29
2019-02-07T07:06:28.464Z,66.21
2019-02-07T07:09:17.965Z,66.39
2019-02-07T07:12:01.410Z,66.69
2019-02-07T07:14:44.639Z,67.42
2019-02-07T07:17:35.513Z,66.98
2019-02-07T07:20:22.115Z,67.27
2019-02-07T07:23:07.630Z,67.65
2019-02-07T07:25:48.775Z,67.16
2019-02-07T07:28:36.503Z,67.19
2019-02-07T07:31:14.239Z,67.49
2019-02-07T07:34:00.618Z,67.70
2019-02-07T07:36:47.209Z,68.00
2019-02-07T07:39:52.889Z,67.77
2019-02-07T07:42:43.661Z,67.87
2019-02-07T07:45:24.070Z,67.71
2019-02-07T07:48:11.177Z,67.76
2019-02-07T07:50:57.743Z,67.64
2019-02-07T07:53:43.258Z,67.85
2019-02-07T07:56:29.939Z,67.80
2019-02-07T07:59:15.958Z,67.70
2019-02-07T08:02:03.558Z,67.67
2019-02-07T08:04:49.939Z,67.54
2019-02-07T08:07:37.417Z,67.35
2019-02-07T08:10:32.454Z,67.69
2019-02-07T08:13:14.312Z,67.57
2019-02-07T08:16:07.803Z,67.31
2019-02-07T08:19:07.565Z,67.12
2019-02-07T08:21:44.263Z,67.10
2019-02-07T08:24:30.122Z,67.26
2019-02-07T08:27:24.914Z,67.00
2019-02-07T08:30:11.490Z,67.17
2019-02-07T08:33:10.998Z,66.78
2019-02-07T08:35:57.504Z,66.59
2019-02-07T08:38:37.843Z,67.21
2019-02-07T08:41:28.493Z,67.27
2019-02-07T08:44:14.791Z,67.29
2019-02-07T08:47:02.552Z,67.41
2019-02-07T08:49:47.182Z,67.70
2019-02-07T08:52:33.212Z,68.11
2019-02-07T08:55:16.193Z,68.97
2019-02-07T08:58:01.203Z,70.12
2019-02-07T09:00:56.201Z,71.60
2019-02-07T09:03:46.086Z,72.85
2019-02-07T09:06:48.599Z,74.25
2019-02-07T09:09:29.621Z,76.21
2019-02-07T09:12:15.421Z,76.51
2019-02-07T09:14:52.814Z,77.36
2019-02-07T09:17:49.207Z,77.39
2019-02-07T09:20:35.266Z,77.46
2019-02-07T09:23:10.979Z,78.36
2019-02-07T09:26:10.885Z,78.73
2019-02-07T09:28:56.176Z,79.23
2019-02-07T09:31:36.644Z,79.41
2019-02-07T09:34:13.713Z,79.56
2019-02-07T09:36:59.747Z,79.91
2019-02-07T09:39:40.971Z,80.45
2019-02-07T09:42:40.591Z,80.83
2019-02-07T09:45:24.966Z,81.82
2019-02-07T09:48:21.164Z,82.24
2019-02-07T09:50:50.710Z,82.67
2019-02-07T09:53:28.489Z,83.23
2019-02-07T09:56:06.818Z,83.22
2019-02-07T09:58:54.610Z,83.23
2019-02-07T10:01:32.462Z,83.62
2019-02-07T10:04:20.772Z,83.58
2019-02-07T10:07:09.768Z,83.88
2019-02-07T10:09:52.904Z,83.91
2019-02-07T10:12:39.553Z,83.83
2019-02-07T10:15:18.797Z,83.79
2019-02-07T10:18:11.354Z,83.89
2019-02-07T10:21:02.959Z,84.05
2019-02-07T10:23:49.686Z,84.15
2019-02-07T10:26:40.355Z,83.72
2019-02-07T10:29:34.343Z,83.53
2019-02-07T10:32:24.839Z,83.83
2019-02-07T10:35:03.250Z,83.89
2019-02-07T10:37:48.157Z,84.21
2019-02-07T10:40:27.371Z,84.69
2019-02-07T10:43:13.538Z,84.90
2019-02-07T10:45:56.912Z,84.26
2019-02-07T10:48:50.241Z,84.17
2019-02-07T10:51:42.165Z,84.05
2019-02-07T10:54:19.143Z,83.61
2019-02-07T10:57:15.805Z,83.61
2019-02-07T11:00:00.346Z,82.69
2019-02-07T11:02:59.899Z,83.09
2019-02-07T11:05:46.261Z,82.80
2019-02-07T11:08:41.094Z,82.20
2019-02-07T11:11:17.951Z,81.97
2019-02-07T11:14:08.536Z,81.92
2019-02-07T11:16:53.686Z,81.29
2019-02-07T11:19:56.693Z,81.08
2019-02-07T11:22:47.495Z,80.61
2019-02-07T11:25:47.513Z,81.28
2019-02-07T11:28:26.642Z,80.58
2019-02-07T11:31:17.140Z,80.16
2019-02-07T11:34:02.931Z,80.24
2019-02-07T11:36:59.506Z,79.91
2019-02-07T11:39:55.844Z,79.45
2019-02-07T11:42:49.259Z,79.35
2019-02-07T11:45:28.422Z,79.48
2019-02-07T11:48:16.088Z,79.08
2019-02-07T11:51:04.314Z,78.86
2019-02-07T11:53:51.898Z,79.01
2019-02-07T11:56:33.512Z,79.06
2019-02-07T11:59:24.059Z,78.26
2019-02-07T12:02:20.644Z,78.09
2019-02-07T12:05:06.994Z,77.91
2019-02-07T12:07:52.810Z,77.74
2019-02-07T12:10:47.770Z,77.25
2019-02-07T12:13:53.674Z,77.36
2019-02-07T12:16:43.252Z,76.95
2019-02-07T12:19:26.738Z,76.69
2019-02-07T12:22:14.228Z,76.15
2019-02-07T12:24:56.407Z,75.39
2019-02-07T12:27:43.209Z,75.22
2019-02-07T12:30:45.392Z,75.28
2019-02-07T12:33:33.485Z,75.44
2019-02-07T12:36:27.026Z,74.84
2019-02-07T12:39:15.651Z,74.87
2019-02-07T12:42:10.887Z,74.45
2019-02-07T12:45:09.695Z,75.08
2019-02-07T12:47:47.159Z,74.86
2019-02-07T12:50:45.755Z,74.25
2019-02-07T12:53:48.827Z,73.25
2019-02-07T12:56:35.635Z,72.24
2019-02-07T12:59:16.096Z,71.67
2019-02-07T13:01:57.945Z,71.07
2019-02-07T13:04:44.170Z,71.08
2019-02-07T13:07:37.711Z,71.32
2019-02-07T13:10:45.075Z,72.22
2019-02-07T13:13:27.962Z,72.67
2019-02-07T13:16:21.777Z,72.38
2019-02-07T13:19:15.277Z,72.35
2019-02-07T13:21:57.406Z,73.59
2019-02-07T13:24:46.611Z,73.80
2019-02-07T13:27:24.286Z,73.74
2019-02-07T13:30:10.882Z,73.42
2019-02-07T13:32:57.503Z,73.20
2019-02-07T13:35:45.374Z,72.61
2019-02-07T13:38:27.033Z,72.63
2019-02-07T13:41:13.610Z,72.49
2019-02-07T13:44:07.179Z,72.35
2019-02-07T13:46:53.142Z,71.04
2019-02-07T13:49:31.091Z,69.37
2019-02-07T13:52:17.219Z,68.67
2019-02-07T13:54:57.297Z,68.69
2019-02-07T13:57:43.637Z,68.59
2019-02-07T14:00:32.382Z,67.86
2019-02-07T14:03:23.286Z,68.33
2019-02-07T14:06:09.587Z,69.21
2019-02-07T14:08:56.003Z,69.26
2019-02-07T14:11:43.409Z,69.72
2019-02-07T14:14:27.206Z,68.62
2019-02-07T14:17:08.627Z,68.62
2019-02-07T14:20:06.225Z,68.86
2019-02-07T14:22:59.603Z,68.86
2019-02-07T14:25:50.564Z,69.71
2019-02-07T14:28:53.350Z,70.08
2019-02-07T14:31:53.392Z,69.61
2019-02-07T14:34:43.873Z,70.17
2019-02-07T14:37:47.478Z,70.37
2019-02-07T14:40:29.603Z,70.25
2019-02-07T14:43:20.350Z,70.42
2019-02-07T14:45:58.982Z,70.85
2019-02-07T14:48:27.948Z,71.42
2019-02-07T14:50:56.615Z,71.66
2019-02-07T14:53:25.776Z,71.39
2019-02-07T14:55:56.708Z,71.56
2019-02-07T14:58:25.129Z,72.13
2019-02-07T15:00:53.601Z,72.11
2019-02-07T15:03:22.372Z,72.03
2019-02-07T15:05:50.794Z,71.85
2019-02-07T15:08:19.245Z,71.67
2019-02-07T15:10:48.008Z,71.69
2019-02-07T15:13:16.785Z,71.88
2019-02-07T15:15:45.221Z,71.84
2019-02-07T15:18:14.118Z,72.35
2019-02-07T15:20:42.824Z,72.42
2019-02-07T15:23:12.208Z,72.49
2019-02-07T15:25:41.016Z,72.44
2019-02-07T15:28:09.478Z,72.72
2019-02-07T15:30:37.971Z,73.47
2019-02-07T15:33:06.410Z,73.61
2019-02-07T15:35:37.782Z,73.79
2019-02-07T15:38:07.943Z,73.63
2019-02-07T15:40:36.631Z,73.86
2019-02-07T15:43:05.127Z,74.12
2019-02-07T15:45:33.557Z,74.35
2019-02-07T15:48:02.007Z,74.31
2019-02-07T15:50:37.536Z,74.54
2019-02-07T15:53:02.830Z,74.49
2019-02-07T15:55:31.270Z,74.40
2019-02-07T15:57:59.730Z,74.32
2019-02-07T16:00:53.960Z,74.41
2019-02-07T16:03:32.076Z,74.47
2019-02-07T16:06:00.580Z,74.68
2019-02-07T16:08:29.046Z,74.96
2019-02-07T16:10:57.522Z,75.37
2019-02-07T16:13:27.907Z,75.42
2019-02-07T16:15:56.625Z,75.75
2019-02-07T16:18:25.103Z,76.00
2019-02-07T16:20:53.557Z,76.29
2019-02-07T16:23:22.002Z,76.19
2019-02-07T16:25:50.675Z,75.99
2019-02-07T16:28:20.389Z,76.06
2019-02-07T16:30:49.586Z,76.06
2019-02-07T16:33:18.299Z,75.99
2019-02-07T16:35:46.735Z,76.32
2019-02-07T16:38:15.204Z,76.26
2019-02-07T16:40:43.783Z,76.48
2019-02-07T16:43:12.226Z,76.50
2019-02-07T16:45:41.034Z,76.43
2019-02-07T16:48:09.846Z,76.48
2019-02-07T16:50:38.288Z,76.62
2019-02-07T16:53:06.890Z,76.67
2019-02-07T16:55:35.810Z,76.83
2019-02-07T16:58:04.597Z,76.85
2019-02-07T17:00:33.702Z,76.90
2019-02-07T17:03:02.143Z,77.21
2019-02-07T17:05:30.634Z,77.22
2019-02-07T17:08:00.258Z,77.47
2019-02-07T17:10:30.661Z,77.49
2019-02-07T17:12:59.148Z,77.41
2019-02-07T17:15:27.949Z,77.62
2019-02-07T17:17:56.942Z,77.98
2019-02-07T17:20:27.288Z,78.30
2019-02-07T17:22:55.870Z,78.47
2019-02-07T17:25:24.304Z,78.51
2019-02-07T17:27:52.779Z,78.62
2019-02-07T17:30:21.803Z,78.63
2019-02-07T17:32:50.637Z,78.76
2019-02-07T17:35:19.385Z,78.97
2019-02-07T17:37:48.380Z,79.19
2019-02-07T17:40:18.076Z,79.08
2019-02-07T17:42:46.833Z,79.22
2019-02-07T17:45:17.911Z,79.14
2019-02-07T17:47:47.101Z,79.12
2019-02-07T17:50:19.012Z,79.01
2019-02-07T17:52:50.213Z,79.15
2019-02-07T17:55:18.234Z,78.95
2019-02-07T17:57:46.670Z,78.65
2019-02-07T18:00:32.764Z,78.70
2019-02-07T18:03:01.209Z,78.84
2019-02-07T18:05:29.958Z,79.00
2019-02-07T18:07:58.403Z,79.32
2019-02-07T18:10:28.683Z,79.15
2019-02-07T18:12:57.449Z,79.19
2019-02-07T18:15:26.508Z,79.15
2019-02-07T18:17:54.955Z,79.10
2019-02-07T18:20:23.780Z,79.07
2019-02-07T18:22:52.486Z,79.00
2019-02-07T18:25:20.938Z,78.87
2019-02-07T18:27:49.360Z,79.38
2019-02-07T18:30:18.654Z,80.28
2019-02-07T18:32:47.820Z,80.33
2019-02-07T18:35:16.357Z,80.76
2019-02-07T18:37:44.790Z,81.23
2019-02-07T18:40:16.542Z,81.13
2019-02-07T18:42:45.329Z,81.01
2019-02-07T18:45:14.054Z,80.99
2019-02-07T18:47:42.495Z,80.93
2019-02-07T18:50:15.129Z,80.79
2019-02-07T18:52:43.862Z,80.67
2019-02-07T18:55:12.319Z,80.95
2019-02-07T18:57:40.754Z,81.05
2019-02-07T19:00:12.580Z,81.11
2019-02-07T19:02:43.887Z,80.85
2019-02-07T19:05:12.756Z,80.90
2019-02-07T19:07:41.201Z,80.96
2019-02-07T19:10:10.918Z,80.96
2019-02-07T19:12:39.371Z,81.11
2019-02-07T19:15:11.888Z,80.94
2019-02-07T19:17:40.340Z,80.80
2019-02-07T19:20:12.508Z,80.66
2019-02-07T19:22:41.279Z,80.71
2019-02-07T19:25:09.745Z,80.74
2019-02-07T19:27:38.175Z,80.62
2019-02-07T19:30:10.648Z,80.41
2019-02-07T19:32:39.404Z,80.23
2019-02-07T19:35:08.826Z,80.12
2019-02-07T19:37:37.609Z,80.10
2019-02-07T19:40:07.455Z,80.10
2019-02-07T19:42:36.209Z,80.08
2019-02-07T19:45:05.949Z,79.84
2019-02-07T19:47:34.651Z,79.98
2019-02-07T19:50:03.121Z,79.64
2019-02-07T19:52:31.868Z,79.63
2019-02-07T19:55:00.800Z,79.72
2019-02-07T19:57:29.587Z,79.39
2019-02-07T19:59:58.001Z,79.51
2019-02-07T20:02:26.451Z,79.46
2019-02-07T20:04:55.217Z,79.28
2019-02-07T20:07:23.667Z,79.17
2019-02-07T20:09:52.347Z,78.29
2019-02-07T20:12:21.536Z,78.27
2019-02-07T20:14:50.001Z,78.08
2019-02-07T20:17:18.726Z,77.39
2019-02-07T20:22:35.139Z,76.45
2019-02-07T20:25:03.931Z,76.18
2019-02-07T20:27:32.655Z,75.43
2019-02-07T20:30:01.087Z,75.18
2019-02-07T20:32:29.927Z,74.65
2019-02-07T20:34:58.682Z,74.68
2019-02-07T20:37:27.404Z,74.89
2019-02-07T20:39:56.169Z,74.80
2019-02-07T20:42:25.271Z,74.32
2019-02-07T20:44:54.061Z,74.10
2019-02-07T20:47:22.530Z,73.93
2019-02-07T20:49:53.967Z,73.85
2019-02-07T20:52:27.305Z,74.21
2019-02-07T20:54:54.291Z,74.21
2019-02-07T20:57:22.752Z,73.81
2019-02-07T20:59:51.800Z,73.57
2019-02-07T21:02:20.274Z,73.30
2019-02-07T21:04:48.717Z,72.91
2019-02-07T21:07:17.452Z,73.31
2019-02-07T21:09:46.542Z,73.28
2019-02-07T21:12:15.335Z,73.21
2019-02-07T21:14:44.128Z,72.89
2019-02-07T21:17:12.578Z,72.59
2019-02-07T21:19:41.012Z,71.81
2019-02-07T21:22:09.491Z,72.08
2019-02-07T21:24:38.435Z,71.44
2019-02-07T21:27:06.999Z,71.49
2019-02-07T21:29:35.422Z,71.14
2019-02-07T21:32:04.046Z,71.12
2019-02-07T21:34:32.873Z,71.68
2019-02-07T21:37:01.286Z,71.56
2019-02-07T21:39:30.098Z,71.78
2019-02-07T21:41:58.534Z,71.83
2019-02-07T21:44:27.527Z,71.36
2019-02-07T21:46:56.623Z,70.78
2019-02-07T21:49:25.373Z,71.05
2019-02-07T21:51:53.777Z,71.67
2019-02-07T21:54:22.218Z,71.26
2019-02-07T21:56:50.963Z,71.00
2019-02-07T21:59:19.636Z,71.07
2019-02-07T22:01:48.443Z,71.29
2019-02-07T22:04:17.222Z,70.85
2019-02-07T22:06:45.950Z,70.94
2019-02-07T22:09:14.690Z,70.86
2019-02-07T22:11:43.125Z,70.87
2019-02-07T22:14:11.855Z,71.30
2019-02-07T22:16:40.953Z,70.96
2019-02-07T22:19:09.737Z,71.51
2019-02-07T22:21:38.529Z,71.48
2019-02-07T22:24:06.964Z,71.78
2019-02-07T22:26:35.710Z,71.25
2019-02-07T22:29:04.162Z,71.33
2019-02-07T22:31:32.962Z,71.63
2019-02-07T22:34:01.645Z,71.12
2019-02-07T22:36:30.444Z,71.37
2019-02-07T22:38:58.886Z,71.34
2019-02-07T22:41:27.620Z,71.90
2019-02-07T22:43:56.598Z,72.05
2019-02-07T22:46:27.201Z,71.66
2019-02-07T22:48:55.742Z,71.41
2019-02-07T22:51:24.166Z,71.36
2019-02-07T22:53:52.614Z,71.50
2019-02-07T22:56:21.658Z,70.84
2019-02-07T22:58:50.453Z,71.01
2019-02-07T23:01:34.802Z,70.84
2019-02-07T23:04:06.798Z,70.83
2019-02-07T23:06:35.557Z,71.03
2019-02-07T23:09:06.043Z,70.64
2019-02-07T23:11:34.464Z,71.17
2019-02-07T23:14:05.009Z,70.99
2019-02-07T23:16:33.462Z,71.00
2019-02-07T23:19:01.901Z,70.91
2019-02-07T23:21:30.342Z,70.53
2019-02-07T23:23:58.769Z,70.52
2019-02-07T23:26:27.439Z,70.83
2019-02-07T23:28:55.887Z,71.17
2019-02-07T23:31:24.616Z,70.98
2019-02-07T23:33:53.158Z,70.83
2019-02-07T23:36:22.249Z,70.66
2019-02-07T23:38:50.667Z,70.97
2019-02-07T23:41:19.393Z,71.03
2019-02-07T23:43:48.493Z,70.82
2019-02-07T23:46:17.224Z,70.66
2019-02-07T23:48:46.175Z,70.78
2019-02-07T23:51:14.614Z,70.84
2019-02-07T23:53:43.551Z,70.73
2019-02-07T23:56:11.984Z,70.68
2019-02-07T23:58:40.421Z,70.46
